Alden, Michigan
Current Conditions -  °F | °C
As of 8:38 AM on Wednesday 26 Nov 2014 (Local Time) from KACB Reporting Station
Overcast Overcast  
Wind Chill: 21°   Ceiling: 3100
Heat Index: 26°   Visibility: 10mi
Dew Point: 20°   Wind: 5mph
Humidity: 79%   Direction: 100°E
Pressure: 30.19"   Gusts: NA
Location:  44.88°N, 85.28°W
Report Text: KACB 261338Z AUTO 10004KT 10SM OVC031 M03/M06 A3019 RMK AO2 T10331065
Loading
Personal Weather Stations






























Interactive Weather Map New forecast layout! Learn more

10-Day Weather Forecast

Advertisements
Track Severe Weather on mobile